KGEG

Spokane International Airport

Spokane, Washington, USA
METAR KGEG 172053Z 21019G28KT 4SM -RASN BR FEW001 BKN007 OVC010 03/02 A2949 RMK AO2 PK WND 20031/2031 SLP000 VIS W-N 2 1/2 RAB04E25B43SNE04B51 P0000 60009 T00280022 56063 $
Observed Flight Rules
Feb-17 @ 20:53 UTC (44 minutes ago) Instrument Flight Rules
Wind Visibility Clouds Conditions
210° at 19 knots
 Gusting to 28 knots
4 miles
  • Few at 100' AGL
  • Broken at 700' AGL
  • Overcast at 1,000' AGL
  • Light Rain
  • Light Snow
  • Mist
Temperatures Readings Precipitation
Current 3°C / 37°F
Dewpoint 2°C / 36°F
Humidity 93%
Altimeter 29.49" Hg
Pressure 1000 hPa
Elevation 735
Current Rain 0.005
METAR KGEG 172053Z 21019G28KT 4SM -RASN BR FEW001 BKN007 OVC010 03/02 A2949 RMK AO2 PK WND 20031/2031 SLP000 VIS W-N 2 1/2 RAB04E25B43SNE04B51 P0000 60009 T00280022 56063 $
Observed Flight Rules
Feb-17 @ 20:53 UTC
(44 minutes ago)
IFR
Wind Visibility
210° at 19 knots
 Gusting to 28 knots
4 miles
Clouds
  • Few at 100' AGL
  • Broken at 700' AGL
  • Overcast at 1,000' AGL
Conditions
  • Light Rain
  • Light Snow
  • Mist
Temperature Dewpoint
3°C / 37°F 2°C / 36°F
Humidity Altimeter Pressure
93% 29.49" Hg 1000 hPa
Current Rain
0.005